createdAt,value
2023-04-15T00:01:13.327Z,3.30
2023-04-15T00:03:40.288Z,3.33
2023-04-15T00:06:07.743Z,3.45
2023-04-15T00:08:34.844Z,4.10
2023-04-15T00:11:05.634Z,3.40
2023-04-15T00:13:35.927Z,3.90
2023-04-15T00:16:02.783Z,2.90
2023-04-15T00:18:30.083Z,3.67
2023-04-15T00:20:56.958Z,4.03
2023-04-15T00:23:23.781Z,3.67
2023-04-15T00:25:51.152Z,3.42
2023-04-15T00:28:18.207Z,3.20
2023-04-15T00:30:45.929Z,3.45
2023-04-15T00:33:13.848Z,3.90
2023-04-15T00:35:40.884Z,2.97
2023-04-15T00:38:10.728Z,3.90
2023-04-15T00:40:38.261Z,4.25
2023-04-15T00:43:05.756Z,3.67
2023-04-15T00:45:33.458Z,3.67
2023-04-15T00:48:00.563Z,4.10
2023-04-15T00:50:27.529Z,3.75
2023-04-15T00:52:54.365Z,3.78
2023-04-15T00:55:21.259Z,5.00
2023-04-15T00:57:48.857Z,3.35
2023-04-15T01:00:16.646Z,3.50
2023-04-15T01:02:43.708Z,4.20
2023-04-15T01:05:10.697Z,4.68
2023-04-15T01:07:37.554Z,3.92
2023-04-15T01:10:05.128Z,4.60
2023-04-15T01:12:34.284Z,4.18
2023-04-15T01:15:02.418Z,3.78
2023-04-15T01:17:29.781Z,4.00
2023-04-15T01:19:58.111Z,4.10
2023-04-15T01:22:26.853Z,3.97
2023-04-15T01:25:06.312Z,3.80
2023-04-15T01:27:35.404Z,4.35
2023-04-15T01:30:05.350Z,4.38
2023-04-15T01:32:32.289Z,4.30
2023-04-15T01:34:59.121Z,4.60
2023-04-15T01:37:26.387Z,4.32
2023-04-15T01:39:53.210Z,5.25
2023-04-15T01:42:21.971Z,4.40
2023-04-15T01:44:48.797Z,5.30
2023-04-15T01:47:15.583Z,4.20
2023-04-15T01:49:42.410Z,4.38
2023-04-15T01:52:09.251Z,4.03
2023-04-15T01:54:36.164Z,4.80
2023-04-15T01:57:03.709Z,4.35
2023-04-15T01:59:32.055Z,4.32
2023-04-15T02:01:59.862Z,4.72
2023-04-15T02:04:26.834Z,4.65
2023-04-15T02:06:53.833Z,4.30
2023-04-15T02:09:20.668Z,5.15
2023-04-15T02:11:47.568Z,4.18
2023-04-15T02:14:14.520Z,4.43
2023-04-15T02:16:41.320Z,4.78
2023-04-15T02:19:08.990Z,4.30
2023-04-15T02:21:35.818Z,3.65
2023-04-15T02:24:02.657Z,4.10
2023-04-15T02:26:32.184Z,4.20
2023-04-15T02:28:59.578Z,3.60
2023-04-15T02:31:26.866Z,4.03
2023-04-15T02:33:53.667Z,3.97
2023-04-15T02:36:21.347Z,4.63
2023-04-15T02:38:48.193Z,4.20
2023-04-15T02:41:15.030Z,3.70
2023-04-15T02:43:41.919Z,3.28
2023-04-15T02:46:08.717Z,4.30
2023-04-15T02:48:36.044Z,4.47
2023-04-15T02:51:13.709Z,4.32
2023-04-15T02:53:41.591Z,4.05
2023-04-15T02:56:08.477Z,3.60
2023-04-15T02:58:36.002Z,3.78
2023-04-15T03:01:02.927Z,4.07
2023-04-15T03:03:29.800Z,4.05
2023-04-15T03:05:56.581Z,3.80
2023-04-15T03:08:23.368Z,4.15
2023-04-15T03:10:52.372Z,4.20
2023-04-15T03:13:19.804Z,4.28
2023-04-15T03:15:47.191Z,3.90
2023-04-15T03:18:14.226Z,4.40
2023-04-15T03:20:41.278Z,3.67
2023-04-15T03:23:08.131Z,3.72
2023-04-15T03:25:37.329Z,3.78
2023-04-15T03:28:04.361Z,3.78
2023-04-15T03:30:31.550Z,3.60
2023-04-15T03:32:58.506Z,3.80
2023-04-15T03:35:25.540Z,3.83
2023-04-15T03:37:52.335Z,4.68
2023-04-15T03:40:19.166Z,3.60
2023-04-15T03:42:48.864Z,3.83
2023-04-15T03:45:15.656Z,3.08
2023-04-15T03:47:42.545Z,3.17
2023-04-15T03:50:09.546Z,3.63
2023-04-15T03:52:36.310Z,3.30
2023-04-15T03:55:03.172Z,2.47
2023-04-15T03:57:29.944Z,3.03
2023-04-15T03:59:59.450Z,3.63
2023-04-15T04:02:26.539Z,3.40
2023-04-15T04:04:53.869Z,3.17
2023-04-15T04:07:20.809Z,3.03
2023-04-15T04:09:47.602Z,2.95
2023-04-15T04:12:14.438Z,3.45
2023-04-15T04:14:41.218Z,2.30
2023-04-15T04:17:08.414Z,2.80
2023-04-15T04:19:35.397Z,2.92
2023-04-15T04:22:05.054Z,3.50
2023-04-15T04:24:31.794Z,2.85
2023-04-15T04:26:58.497Z,3.70
2023-04-15T04:29:25.220Z,2.92
2023-04-15T04:31:52.018Z,2.75
2023-04-15T04:34:21.737Z,2.20
2023-04-15T04:36:48.457Z,3.00
2023-04-15T04:39:15.383Z,2.72
2023-04-15T04:41:42.122Z,4.00
2023-04-15T04:44:08.847Z,2.40
2023-04-15T04:46:35.598Z,2.95
2023-04-15T04:49:02.623Z,3.40
2023-04-15T04:51:29.585Z,2.60
2023-04-15T04:53:57.289Z,2.53
2023-04-15T04:56:24.104Z,2.17
2023-04-15T04:58:51.333Z,2.38
2023-04-15T05:01:18.163Z,2.25
2023-04-15T05:03:45.104Z,3.05
2023-04-15T05:06:12.055Z,1.92
2023-04-15T05:08:40.309Z,2.25
2023-04-15T05:11:07.387Z,1.95
2023-04-15T05:13:34.145Z,2.05
2023-04-15T05:16:00.942Z,2.15
2023-04-15T05:18:27.789Z,2.15
2023-04-15T05:20:54.612Z,1.67
2023-04-15T05:23:21.407Z,2.15
2023-04-15T05:25:48.133Z,1.90
2023-04-15T05:28:14.923Z,2.08
2023-04-15T05:30:41.943Z,1.52
2023-04-15T05:33:09.191Z,2.50
2023-04-15T05:35:36.226Z,1.35
2023-04-15T05:38:02.966Z,1.40
2023-04-15T05:40:31.381Z,1.63
2023-04-15T05:42:58.191Z,1.77
2023-04-15T05:45:24.923Z,1.50
2023-04-15T05:47:54.202Z,1.40
2023-04-15T05:50:21.377Z,1.77
2023-04-15T05:52:48.159Z,1.55
2023-04-15T05:55:14.906Z,1.80
2023-04-15T05:57:41.664Z,1.58
2023-04-15T06:00:08.913Z,1.92
2023-04-15T06:02:36.482Z,1.88
2023-04-15T06:05:04.146Z,1.35
2023-04-15T06:07:30.951Z,1.02
2023-04-15T06:09:57.774Z,1.58
2023-04-15T06:12:24.521Z,1.23
2023-04-15T06:14:51.523Z,1.48
2023-04-15T06:17:19.337Z,1.90
2023-04-15T06:19:46.817Z,1.08
2023-04-15T06:22:13.698Z,1.27
2023-04-15T06:24:41.143Z,1.90
2023-04-15T06:27:08.105Z,1.13
2023-04-15T06:29:34.879Z,1.63
2023-04-15T06:32:01.604Z,1.65
2023-04-15T06:34:28.356Z,1.15
2023-04-15T06:36:55.204Z,1.30
2023-04-15T06:39:21.991Z,0.95
2023-04-15T06:41:49.048Z,1.20
2023-04-15T06:44:16.306Z,1.00
2023-04-15T06:46:43.217Z,1.17
2023-04-15T06:49:10.391Z,1.17
2023-04-15T06:51:37.396Z,0.73
2023-04-15T06:54:06.147Z,0.80
2023-04-15T06:56:33.742Z,0.93
2023-04-15T06:59:00.934Z,1.15
2023-04-15T07:01:28.277Z,1.15
2023-04-15T07:03:55.258Z,1.27
2023-04-15T07:06:22.218Z,0.90
2023-04-15T07:08:48.950Z,1.27
2023-04-15T07:11:15.729Z,0.82
2023-04-15T07:13:42.484Z,1.48
2023-04-15T07:16:09.447Z,0.90
2023-04-15T07:18:36.188Z,0.90
2023-04-15T07:21:03.010Z,1.15
2023-04-15T07:23:29.787Z,0.95
2023-04-15T07:25:57.425Z,0.80
2023-04-15T07:28:24.219Z,1.00
2023-04-15T07:30:51.086Z,0.90
2023-04-15T07:33:17.944Z,0.82
2023-04-15T07:35:45.317Z,0.85
2023-04-15T07:38:15.074Z,1.05
2023-04-15T07:40:42.445Z,1.38
2023-04-15T07:43:09.921Z,0.90
2023-04-15T07:45:36.713Z,0.90
2023-04-15T07:48:03.805Z,1.02
2023-04-15T07:50:30.634Z,1.10
2023-04-15T07:52:57.816Z,1.13
2023-04-15T07:55:25.792Z,1.25
2023-04-15T07:57:53.378Z,0.90
2023-04-15T08:00:20.249Z,1.20
2023-04-15T08:02:48.441Z,1.33
2023-04-15T08:05:15.967Z,1.05
2023-04-15T08:07:42.718Z,1.17
2023-04-15T08:10:10.070Z,1.23
2023-04-15T08:12:37.296Z,1.38
2023-04-15T08:15:08.363Z,1.77
2023-04-15T08:17:35.356Z,1.07
2023-04-15T08:20:05.252Z,1.10
2023-04-15T08:22:32.004Z,1.20
2023-04-15T08:24:59.628Z,0.90
2023-04-15T08:27:26.467Z,1.50
2023-04-15T08:29:53.771Z,1.17
2023-04-15T08:32:20.640Z,1.20
2023-04-15T08:34:48.253Z,1.35
2023-04-15T08:37:14.988Z,1.08
2023-04-15T08:39:41.772Z,0.93
2023-04-15T08:42:16.549Z,1.40
2023-04-15T08:44:44.743Z,0.90
2023-04-15T08:47:14.874Z,1.50
2023-04-15T08:49:43.062Z,1.10
2023-04-15T08:52:10.391Z,1.48
2023-04-15T08:54:38.783Z,1.20
2023-04-15T08:57:06.729Z,1.30
2023-04-15T08:59:33.543Z,1.80
2023-04-15T09:02:01.192Z,1.83
2023-04-15T09:04:28.521Z,1.25
2023-04-15T09:06:55.239Z,1.23
2023-04-15T09:09:22.757Z,2.45
2023-04-15T09:11:51.408Z,1.90
2023-04-15T09:14:18.361Z,2.03
2023-04-15T09:17:02.234Z,1.63
2023-04-15T09:19:29.438Z,1.75
2023-04-15T09:21:59.112Z,1.60
2023-04-15T09:24:33.889Z,1.80
2023-04-15T09:27:01.123Z,1.52
2023-04-15T09:29:28.203Z,1.23
2023-04-15T09:31:55.062Z,2.33
2023-04-15T09:34:22.642Z,1.60
2023-04-15T09:36:57.798Z,2.28
2023-04-15T09:39:24.899Z,2.65
2023-04-15T09:42:10.991Z,1.73
2023-04-15T09:44:37.945Z,1.58
2023-04-15T09:47:05.018Z,2.33
2023-04-15T09:49:31.877Z,2.70
2023-04-15T09:52:06.360Z,1.90
2023-04-15T09:54:38.153Z,2.47
2023-04-15T09:57:10.892Z,2.20
2023-04-15T09:59:44.097Z,2.45
2023-04-15T10:02:11.950Z,2.50
2023-04-15T10:04:42.115Z,2.00
2023-04-15T10:07:09.828Z,2.10
2023-04-15T10:09:51.408Z,2.38
2023-04-15T10:12:18.890Z,2.35
2023-04-15T10:14:52.583Z,2.35
2023-04-15T10:17:23.040Z,2.38
2023-04-15T10:19:53.345Z,2.13
2023-04-15T10:22:20.541Z,2.80
2023-04-15T10:24:48.853Z,2.20
2023-04-15T10:27:18.997Z,3.08
2023-04-15T10:29:46.498Z,2.17
2023-04-15T10:32:14.404Z,1.80
2023-04-15T10:34:42.213Z,2.47
2023-04-15T10:37:11.717Z,2.33
2023-04-15T10:39:41.696Z,1.92
2023-04-15T10:42:11.311Z,3.35
2023-04-15T10:44:39.634Z,3.35
2023-04-15T10:47:20.164Z,4.68
2023-04-15T10:50:07.963Z,4.20
2023-04-15T10:52:42.788Z,2.60
2023-04-15T10:55:19.798Z,2.50
2023-04-15T10:57:47.037Z,2.28
2023-04-15T11:00:15.853Z,2.13
2023-04-15T11:02:44.214Z,2.33
2023-04-15T11:05:12.231Z,2.10
2023-04-15T11:08:13.935Z,2.35
2023-04-15T11:10:41.023Z,3.72
2023-04-15T11:13:11.096Z,3.97
2023-04-15T11:15:38.816Z,3.13
2023-04-15T11:18:25.642Z,3.38
2023-04-15T11:21:03.612Z,3.15
2023-04-15T11:23:44.210Z,3.50
2023-04-15T11:26:14.231Z,4.22
2023-04-15T11:28:46.064Z,3.67
2023-04-15T11:31:16.741Z,4.00
2023-04-15T11:33:58.211Z,3.28
2023-04-15T11:36:30.178Z,2.38
2023-04-15T11:38:59.203Z,1.50
2023-04-15T11:41:26.345Z,1.70
2023-04-15T11:43:55.620Z,0.88
2023-04-15T11:46:28.868Z,0.50
2023-04-15T11:48:55.726Z,1.50
2023-04-15T11:51:22.753Z,1.05
2023-04-15T11:53:51.156Z,2.10
2023-04-15T11:56:26.124Z,0.80
2023-04-15T11:58:57.145Z,1.05
2023-04-15T12:01:33.298Z,1.50
2023-04-15T12:04:04.524Z,1.60
2023-04-15T12:06:37.190Z,1.65
2023-04-15T12:09:08.477Z,1.02
2023-04-15T12:11:48.532Z,0.65
2023-04-15T12:27:28.630Z,1.05
2023-04-15T12:30:08.133Z,1.10
2023-04-15T12:32:40.918Z,1.42
2023-04-15T12:35:09.365Z,1.52
2023-04-15T12:37:36.421Z,1.73
2023-04-15T12:40:03.978Z,1.45
2023-04-15T12:42:31.425Z,2.13
2023-04-15T12:44:58.257Z,1.40
2023-04-15T12:47:25.256Z,1.05
2023-04-15T12:49:52.491Z,1.70
2023-04-15T12:52:25.297Z,2.00
2023-04-15T13:42:50.746Z,1.92
2023-04-15T15:02:53.016Z,1.63
2023-04-15T15:05:21.831Z,2.67
2023-04-15T15:13:58.577Z,1.60
2023-04-15T15:17:23.852Z,0.90
2023-04-15T15:19:51.045Z,1.77
2023-04-15T15:22:20.145Z,1.30
2023-04-15T15:24:48.211Z,1.38
2023-04-15T15:27:15.069Z,1.10
2023-04-15T15:29:41.851Z,1.17
2023-04-15T15:32:08.672Z,1.27
2023-04-15T15:34:35.713Z,6.20
2023-04-15T15:37:02.600Z,6.75
2023-04-15T15:39:32.354Z,4.72
2023-04-15T15:41:59.074Z,2.70
2023-04-15T15:44:25.937Z,1.40
2023-04-15T15:46:52.747Z,1.33
2023-04-15T15:49:19.976Z,1.27
2023-04-15T15:51:46.846Z,1.35
2023-04-15T15:54:13.618Z,1.60
2023-04-15T15:56:40.711Z,1.30
2023-04-15T15:59:07.480Z,1.30
2023-04-15T16:01:34.332Z,1.25
2023-04-15T16:04:01.445Z,1.98
2023-04-15T16:06:28.771Z,1.35
2023-04-15T16:08:55.746Z,1.20
2023-04-15T16:11:23.125Z,1.42
2023-04-15T16:13:50.048Z,1.58
2023-04-15T16:16:17.016Z,1.88
2023-04-15T16:18:43.807Z,1.88
2023-04-15T16:21:10.878Z,2.80
2023-04-15T16:23:38.326Z,2.10
2023-04-15T16:26:05.226Z,2.33
2023-04-15T16:28:32.075Z,2.85
2023-04-15T16:30:59.383Z,2.50
2023-04-15T16:33:26.893Z,2.78
2023-04-15T16:35:53.817Z,2.22
2023-04-15T16:38:21.509Z,2.38
2023-04-15T16:40:48.258Z,1.95
2023-04-15T16:43:15.083Z,2.67
2023-04-15T16:45:41.829Z,2.95
2023-04-15T16:48:08.575Z,2.92
2023-04-15T16:50:37.329Z,2.50
2023-04-15T16:53:04.090Z,2.83
2023-04-15T16:55:30.899Z,3.60
2023-04-15T16:58:01.723Z,3.72
2023-04-15T17:00:31.723Z,4.40
2023-04-15T17:03:00.138Z,4.00
2023-04-15T17:05:30.881Z,2.92
2023-04-15T17:07:57.883Z,3.38
2023-04-15T17:10:24.868Z,3.35
2023-04-15T17:12:52.407Z,3.50
2023-04-15T17:15:20.125Z,3.15
2023-04-15T17:17:46.884Z,3.50
2023-04-15T17:20:13.729Z,2.92
2023-04-15T17:22:40.600Z,3.22
2023-04-15T17:25:07.967Z,3.33
2023-04-15T17:27:34.853Z,4.90
2023-04-15T17:30:02.086Z,5.10
2023-04-15T17:32:31.940Z,4.38
2023-04-15T17:34:58.872Z,5.07
2023-04-15T17:37:25.730Z,4.55
2023-04-15T17:39:52.904Z,3.63
2023-04-15T17:42:19.891Z,4.03
2023-04-15T17:44:50.109Z,3.92
2023-04-15T17:47:17.149Z,3.17
2023-04-15T17:49:44.261Z,3.75
2023-04-15T17:52:11.310Z,4.28
2023-04-15T17:54:38.112Z,3.22
2023-04-15T17:57:04.881Z,3.78
2023-04-15T17:59:33.757Z,5.15
2023-04-15T18:02:03.682Z,5.30
2023-04-15T18:04:30.886Z,4.35
2023-04-15T18:06:57.823Z,4.90
2023-04-15T18:09:24.610Z,5.97
2023-04-15T18:11:51.321Z,4.18
2023-04-15T18:14:33.093Z,3.67
2023-04-15T18:17:01.403Z,3.58
2023-04-15T18:19:28.388Z,3.83
2023-04-15T18:21:55.166Z,3.78
2023-04-15T18:24:22.698Z,5.47
2023-04-15T18:26:49.652Z,4.28
2023-04-15T18:29:16.685Z,3.95
2023-04-15T18:31:43.659Z,3.90
2023-04-15T18:34:13.779Z,3.85
2023-04-15T18:36:40.554Z,3.75
2023-04-15T18:39:07.567Z,2.65
2023-04-15T18:41:34.662Z,3.58
2023-04-15T18:44:01.459Z,3.17
2023-04-15T18:46:28.830Z,3.45
2023-04-15T18:48:55.580Z,2.65
2023-04-15T18:51:22.333Z,2.60
2023-04-15T18:53:49.151Z,2.10
2023-04-15T18:56:16.131Z,1.88
2023-04-15T18:59:08.974Z,2.10
2023-04-15T19:01:31.468Z,1.45
2023-04-15T19:03:58.376Z,1.52
2023-04-15T19:06:26.779Z,1.40
2023-04-15T19:08:53.554Z,1.38
2023-04-15T19:11:20.447Z,1.10
2023-04-15T19:13:47.240Z,1.15
2023-04-15T19:16:14.026Z,1.13
2023-04-15T19:18:40.826Z,1.67
2023-04-15T19:21:07.624Z,1.08
2023-04-15T19:23:34.534Z,1.30
2023-04-15T19:26:01.486Z,1.60
2023-04-15T19:28:28.424Z,1.70
2023-04-15T19:30:55.427Z,1.67
2023-04-15T19:33:22.279Z,1.90
2023-04-15T19:35:50.163Z,2.03
2023-04-15T19:38:17.179Z,2.83
2023-04-15T19:40:44.055Z,2.25
2023-04-15T19:43:10.919Z,2.53
2023-04-15T19:45:37.961Z,2.55
2023-04-15T19:48:06.241Z,2.35
2023-04-15T19:50:33.155Z,2.72
2023-04-15T19:52:59.967Z,2.53
2023-04-15T19:55:29.737Z,2.55
2023-04-15T19:57:56.931Z,2.40
2023-04-15T20:00:23.784Z,2.60
2023-04-15T20:02:50.658Z,2.45
2023-04-15T20:05:17.593Z,2.75
2023-04-15T20:07:47.602Z,3.00
2023-04-15T20:10:14.718Z,3.20
2023-04-15T20:12:49.546Z,2.28
2023-04-15T20:15:19.479Z,3.22
2023-04-15T20:17:46.413Z,3.17
2023-04-15T20:20:13.367Z,2.53
2023-04-15T20:22:40.210Z,3.03
2023-04-15T20:25:07.745Z,3.00
2023-04-15T20:27:34.628Z,2.20
2023-04-15T20:30:01.422Z,2.03
2023-04-15T20:32:28.482Z,2.20
2023-04-15T20:34:55.396Z,1.58
2023-04-15T20:37:22.446Z,1.63
2023-04-15T20:39:49.601Z,1.80
2023-04-15T20:42:16.508Z,1.23
2023-04-15T20:44:43.431Z,1.67
2023-04-15T20:47:10.194Z,1.80
2023-04-15T20:49:38.381Z,2.17
2023-04-15T20:52:07.033Z,2.20
2023-04-15T20:54:34.218Z,2.47
2023-04-15T20:57:01.801Z,2.00
2023-04-15T20:59:28.627Z,2.10
2023-04-15T21:01:57.099Z,1.90
2023-04-15T21:04:24.567Z,1.77
2023-04-15T21:06:52.308Z,2.22
2023-04-15T21:09:19.245Z,1.42
2023-04-15T21:12:00.525Z,1.35
2023-04-15T21:14:28.332Z,1.35
2023-04-15T21:16:56.309Z,1.75
2023-04-15T21:19:23.045Z,1.60
2023-04-15T21:21:49.858Z,1.75
2023-04-15T21:24:16.620Z,1.98
2023-04-15T21:26:43.418Z,2.17
2023-04-15T21:29:11.700Z,1.65
2023-04-15T21:31:38.877Z,2.00
2023-04-15T21:34:05.796Z,2.17
2023-04-15T21:36:33.994Z,2.17
2023-04-15T21:39:01.103Z,2.03
2023-04-15T21:41:28.010Z,2.10
2023-04-15T21:43:54.800Z,2.28
2023-04-15T21:46:25.434Z,2.10
2023-04-15T21:48:59.512Z,2.38
2023-04-15T21:51:26.717Z,2.38
2023-04-15T21:53:53.573Z,1.98
2023-04-15T21:56:22.598Z,1.75
2023-04-15T21:58:49.391Z,1.60
2023-04-15T22:01:16.974Z,1.77
2023-04-15T22:03:44.014Z,1.50
2023-04-15T22:06:11.186Z,1.23
2023-04-15T22:08:48.391Z,1.15
2023-04-15T22:11:26.546Z,1.33
2023-04-15T22:13:54.343Z,1.05
2023-04-15T22:16:21.529Z,1.33
2023-04-15T22:18:48.656Z,1.00
2023-04-15T22:21:15.588Z,1.08
2023-04-15T22:23:45.790Z,0.90
2023-04-15T22:26:12.514Z,1.10
2023-04-15T22:28:39.302Z,0.98
2023-04-15T22:31:06.584Z,1.05
2023-04-15T22:33:33.878Z,1.38
2023-04-15T22:36:00.667Z,1.80
2023-04-15T22:38:27.448Z,2.03
2023-04-15T22:40:54.363Z,2.55
2023-04-15T22:43:21.151Z,2.63
2023-04-15T22:45:52.989Z,2.63
2023-04-15T22:48:19.952Z,3.15
2023-04-15T22:50:46.704Z,3.40
2023-04-15T22:53:14.993Z,3.65
2023-04-15T22:55:46.681Z,3.42
2023-04-15T22:58:14.177Z,3.70
2023-04-15T23:00:41.341Z,3.30
2023-04-15T23:03:08.347Z,4.00
2023-04-15T23:05:35.249Z,3.45
2023-04-15T23:08:02.061Z,2.88
2023-04-15T23:10:29.479Z,2.97
2023-04-15T23:12:56.263Z,2.60
2023-04-15T23:15:23.524Z,3.33
2023-04-15T23:17:50.443Z,3.28
2023-04-15T23:20:17.340Z,3.20
2023-04-15T23:22:44.299Z,4.22
2023-04-15T23:25:11.080Z,3.70
2023-04-15T23:27:37.845Z,3.72
2023-04-15T23:30:05.163Z,3.60
2023-04-15T23:32:31.948Z,4.13
2023-04-15T23:34:58.704Z,4.07
2023-04-15T23:37:25.462Z,4.22
2023-04-15T23:39:52.511Z,3.75
2023-04-15T23:42:19.339Z,3.97
2023-04-15T23:44:46.127Z,3.30
2023-04-15T23:47:12.935Z,3.50
2023-04-15T23:49:40.992Z,3.78
2023-04-15T23:52:08.287Z,3.42
2023-04-15T23:54:35.238Z,4.32
2023-04-15T23:57:03.516Z,3.92
2023-04-15T23:59:30.310Z,2.65
